Weather History for Big Bear City, CA

Change the Weather History Date:

Wednesday, November 7, 2012

  Actual Average (KBUO) Record (KBUO)
Temperature  
Mean Temperature 45 °F -  
Max Temperature 62 °F 67 °F 73 °F (1997)
Min Temperature 28 °F 46 °F 42 °F (1998)
Degree Days  
Heating Degree Days 20    
Moisture  
Dew Point 20 °F    
Average Humidity 46    
Maximum Humidity 74    
Minimum Humidity 15    
Precipitation  
Precipitation 0.00 in - - ()
Sea Level Pressure  
Sea Level Pressure 30.22 in    
Wind  
Wind Speed 2 mph (WSW)    
Max Wind Speed 13 mph    
Max Gust Speed 16 mph    
Visibility 10 miles    
Events      
Averages and records for this station are not official NWS values.
T = Trace of Precipitation, MM = Missing Value Source: NWS Daily Summary

Daily Weather History Graph

Daily Weather History Graph

Search for Another Location

Airport:

Trip Planner

Search our weather history database for the weather conditions in past years. The results will help you decide how hot, cold, wet, or windy it might be!

Date:

Astronomy

Nov. 07, 2012 Rise Set
Actual Time 6:13 AM PST 4:48 PM PST
Civil Twilight 5:47 AM PST 5:14 PM PST
Nautical Twilight 5:17 AM PST 5:44 PM PST
Astronomical Twilight 4:47 AM PST 6:14 PM PST
Moon No Moon Rise 12:44 PM PST (11/7)
Length of Visible Light 11h 27m
Length of Day
10h 35m
Last Quarter, 42% of the Moon is Illuminated
Nov 7
Last Quarter
Nov 13
New
Nov 20
First Quarter
Nov 28
Full
Dec 6
Last Quarter

Hourly Weather History & Observations

Time (PST) Temp. Windchill Dew Point Humidity Pressure Visibility Wind Dir Wind Speed Gust Speed Precip Events Conditions
12:15 AM 32.0 °F - 21.2 °F 64% 30.31 in 10.0 mi Calm Calm - N/A   Clear
12:55 AM 30.2 °F - 19.4 °F 64% 30.31 in 10.0 mi Calm Calm - N/A   Clear
1:15 AM 30.2 °F - 21.2 °F 69% 30.30 in 10.0 mi Calm Calm - N/A   Clear
1:35 AM 30.2 °F - 19.4 °F 64% 30.30 in 10.0 mi Calm Calm - N/A   Clear
1:55 AM 30.2 °F - 19.4 °F 64% 30.30 in 10.0 mi Calm Calm - N/A   Clear
2:35 AM 30.2 °F - 21.2 °F 69% 30.28 in 10.0 mi Calm Calm - N/A   Clear
2:55 AM 30.2 °F - 21.2 °F 69% 30.28 in 10.0 mi Calm Calm - N/A   Clear
3:15 AM 30.2 °F - 19.4 °F 64% 30.28 in 10.0 mi Calm Calm - N/A   Clear
3:35 AM 30.2 °F - 19.4 °F 64% 30.27 in 10.0 mi Calm Calm - N/A   Clear
3:55 AM 30.2 °F - 21.2 °F 69% 30.27 in 10.0 mi Calm Calm - N/A   Clear
4:15 AM 28.4 °F - 19.4 °F 69% 30.28 in 10.0 mi Calm Calm - N/A   Clear
4:35 AM 28.4 °F - 19.4 °F 69% 30.28 in 10.0 mi Calm Calm - N/A   Clear
4:55 AM 28.4 °F - 19.4 °F 69% 30.28 in 10.0 mi Calm Calm - N/A   Clear
5:15 AM 28.4 °F - 19.4 °F 69% 30.28 in 10.0 mi Calm Calm - N/A   Clear
5:35 AM 28.4 °F - 19.4 °F 69% 30.28 in 10.0 mi Calm Calm - N/A   Clear
5:55 AM 28.4 °F - 19.4 °F 69% 30.28 in 10.0 mi Calm Calm - N/A   Clear
6:15 AM 28.4 °F - 19.4 °F 69% 30.28 in 7.0 mi Calm Calm - N/A   Clear
6:35 AM 28.4 °F - 19.4 °F 69% 30.28 in 5.0 mi Calm Calm - N/A   Haze
6:55 AM 28.4 °F - 21.2 °F 74% 30.28 in 10.0 mi Calm Calm - N/A   Clear
7:15 AM 32.0 °F - 21.2 °F 64% 30.29 in 7.0 mi Calm Calm - N/A   Clear
7:35 AM 33.8 °F - 23.0 °F 65% 30.29 in 10.0 mi Calm Calm - N/A   Clear
7:55 AM 39.2 °F - 26.6 °F 61% 30.29 in 10.0 mi Calm Calm - N/A   Clear
8:15 AM 42.8 °F 41.1 °F 28.4 °F 57% 30.29 in 10.0 mi West 3.5 mph - N/A   Clear
8:35 AM 46.4 °F - 26.6 °F 46% 30.28 in 10.0 mi Calm Calm - N/A   Clear
8:55 AM 51.8 °F - 30.2 °F 44% 30.28 in 10.0 mi West 3.5 mph - N/A   Clear
9:15 AM 55.4 °F - 26.6 °F 33% 30.27 in 10.0 mi West 3.5 mph - N/A   Clear
9:35 AM 59.0 °F - 21.2 °F 23% 30.27 in 10.0 mi West 4.6 mph - N/A   Clear
9:55 AM 60.8 °F - 19.4 °F 20% 30.26 in 10.0 mi West 4.6 mph - N/A   Clear
10:15 AM 60.8 °F - 19.4 °F 20% 30.25 in 10.0 mi Calm Calm - N/A   Clear
10:35 AM 62.6 °F - 19.4 °F 19% 30.25 in 10.0 mi West 5.8 mph - N/A   Clear
10:55 AM 62.6 °F - 19.4 °F 19% 30.24 in 10.0 mi WSW 4.6 mph - N/A   Clear
11:15 AM 62.6 °F - 19.4 °F 19% 30.23 in 10.0 mi WSW 4.6 mph - N/A   Clear
11:35 AM 62.6 °F - 19.4 °F 19% 30.22 in 10.0 mi WSW 5.8 mph - N/A   Clear
11:55 AM 62.6 °F - 21.2 °F 20% 30.22 in 10.0 mi West 9.2 mph - N/A   Clear
12:15 PM 62.6 °F - 21.2 °F 20% 30.21 in 10.0 mi West 10.4 mph - N/A   Clear
12:35 PM 62.6 °F - 21.2 °F 20% 30.20 in 10.0 mi West 10.4 mph - N/A   Clear
12:55 PM 62.6 °F - 19.4 °F 19% 30.20 in 10.0 mi WSW 9.2 mph - N/A   Clear
1:15 PM 62.6 °F - 19.4 °F 19% 30.19 in 10.0 mi West 12.7 mph - N/A   Clear
1:35 PM 62.6 °F - 14.0 °F 15% 30.18 in 10.0 mi West 10.4 mph - N/A   Clear
1:55 PM 60.8 °F - 15.8 °F 17% 30.18 in 10.0 mi West 11.5 mph - N/A   Clear
2:15 PM 60.8 °F - 17.6 °F 19% 30.18 in 10.0 mi WSW 11.5 mph 16.1 mph N/A   Clear
2:35 PM 60.8 °F - 17.6 °F 19% 30.18 in 10.0 mi West 11.5 mph - N/A   Clear
2:55 PM 59.0 °F - 17.6 °F 20% 30.18 in 10.0 mi West 11.5 mph - N/A   Clear
3:15 PM 59.0 °F - 15.8 °F 19% 30.18 in 10.0 mi West 10.4 mph - N/A   Clear
3:35 PM 57.2 °F - 21.2 °F 25% 30.17 in 10.0 mi WSW 8.1 mph - N/A   Clear
3:55 PM 55.4 °F - 21.2 °F 26% 30.17 in 10.0 mi WSW 4.6 mph - N/A   Clear
4:15 PM 53.6 °F - 23.0 °F 30% 30.17 in 10.0 mi West 3.5 mph - N/A   Clear
4:35 PM 53.6 °F - 21.2 °F 28% 30.17 in 10.0 mi SSW 3.5 mph - N/A   Clear
4:55 PM 50.0 °F - 19.4 °F 30% 30.16 in 10.0 mi Calm Calm - N/A   Clear
5:15 PM 46.4 °F - 21.2 °F 37% 30.17 in 10.0 mi Calm Calm - N/A   Clear
5:35 PM 44.6 °F - 19.4 °F 37% 30.17 in 10.0 mi Calm Calm - N/A   Clear
5:55 PM 42.8 °F - 19.4 °F 39% 30.17 in 10.0 mi Calm Calm - N/A   Clear
6:15 PM 41.0 °F - 19.4 °F 42% 30.17 in 10.0 mi Calm Calm - N/A   Clear
6:35 PM 37.4 °F - 19.4 °F 48% 30.17 in 10.0 mi Calm Calm - N/A   Clear
6:55 PM 35.6 °F - 17.6 °F 48% 30.17 in 10.0 mi Calm Calm - N/A   Clear
7:15 PM 35.6 °F - 15.8 °F 44% 30.17 in 10.0 mi Calm Calm - N/A   Clear
7:35 PM 33.8 °F - 15.8 °F 48% 30.17 in 10.0 mi Calm Calm - N/A   Clear
7:55 PM 33.8 °F - 17.6 °F 52% 30.17 in 10.0 mi Calm Calm - N/A   Clear
8:15 PM 33.8 °F - 17.6 °F 52% 30.17 in 10.0 mi Calm Calm - N/A   Clear
8:35 PM 33.8 °F - 17.6 °F 52% 30.17 in 10.0 mi Calm Calm - N/A   Clear
8:55 PM 33.8 °F - 17.6 °F 52% 30.17 in 10.0 mi Calm Calm - N/A   Clear
9:15 PM 33.8 °F - 17.6 °F 52% 30.17 in 10.0 mi Calm Calm - N/A   Clear
9:35 PM 33.8 °F - 17.6 °F 52% 30.16 in 10.0 mi Calm Calm - N/A   Clear
9:55 PM 32.0 °F - 17.6 °F 55% 30.16 in 10.0 mi Calm Calm - N/A   Clear
10:15 PM 32.0 °F - 17.6 °F 55% 30.15 in 10.0 mi Calm Calm - N/A   Clear
10:35 PM 32.0 °F - 19.4 °F 60% 30.15 in 10.0 mi Calm Calm - N/A   Clear
10:55 PM 32.0 °F - 19.4 °F 60% 30.14 in 10.0 mi Calm Calm - N/A   Clear
11:15 PM 32.0 °F - 19.4 °F 60% 30.14 in 10.0 mi Calm Calm - N/A   Clear
11:35 PM 33.8 °F 30.8 °F 19.4 °F 56% 30.13 in 10.0 mi West 3.5 mph - N/A   Clear
11:55 PM 35.6 °F 29.9 °F 21.2 °F 56% 30.12 in 10.0 mi WSW 6.9 mph - N/A   Clear